createdAt,value
2023-02-22T00:04:46.115Z,83.00
2023-02-22T00:09:46.056Z,82.79
2023-02-22T00:14:46.009Z,83.00
2023-02-22T00:19:45.981Z,83.10
2023-02-22T00:24:45.882Z,82.79
2023-02-22T00:29:45.814Z,83.65
2023-02-22T00:34:45.748Z,84.27
2023-02-22T00:39:45.710Z,84.41
2023-02-22T00:44:45.621Z,85.13
2023-02-22T00:49:45.540Z,85.64
2023-02-22T00:54:45.474Z,85.33
2023-02-22T00:59:45.400Z,85.13
2023-02-22T01:04:45.337Z,85.95
2023-02-22T01:09:45.267Z,85.85
2023-02-22T01:14:45.201Z,86.66
2023-02-22T01:19:45.149Z,86.15
2023-02-22T01:24:45.068Z,85.74
2023-02-22T01:29:44.975Z,85.64
2023-02-22T01:34:44.974Z,85.44
2023-02-22T01:39:44.875Z,85.19
2023-02-22T01:44:44.811Z,84.78
2023-02-22T01:49:44.736Z,84.78
2023-02-22T01:54:44.690Z,84.37
2023-02-22T01:59:44.913Z,83.96
2023-02-22T02:04:44.602Z,83.96
2023-02-22T02:09:44.477Z,83.92
2023-02-22T02:14:44.437Z,83.92
2023-02-22T02:19:44.358Z,84.03
2023-02-22T02:24:44.264Z,83.72
2023-02-22T02:29:44.228Z,83.51
2023-02-22T02:34:44.152Z,83.34
2023-02-22T02:39:44.087Z,84.27
2023-02-22T02:44:44.004Z,83.86
2023-02-22T02:49:43.966Z,83.65
2023-02-22T02:54:43.897Z,83.55
2023-02-22T02:59:43.868Z,83.86
2023-02-22T03:04:43.752Z,84.37
2023-02-22T03:09:43.684Z,84.68
2023-02-22T03:14:43.653Z,84.47
2023-02-22T03:19:43.565Z,85.30
2023-02-22T03:24:43.488Z,85.39
2023-02-22T03:29:43.467Z,86.25
2023-02-22T03:34:43.355Z,86.15
2023-02-22T03:39:43.341Z,86.46
2023-02-22T03:44:43.216Z,86.66
2023-02-22T03:49:43.190Z,86.66
2023-02-22T03:54:43.089Z,87.18
2023-02-22T03:59:43.083Z,87.49
2023-02-22T04:04:43.002Z,87.73
2023-02-22T04:09:42.926Z,87.73
2023-02-22T04:14:42.844Z,88.14
2023-02-22T04:19:42.802Z,88.66
2023-02-22T04:24:42.733Z,88.70
2023-02-22T04:29:42.633Z,89.36
2023-02-22T04:34:42.606Z,90.38
2023-02-22T04:39:42.561Z,91.04
2023-02-22T04:44:42.427Z,91.14
2023-02-22T04:49:42.416Z,91.86
2023-02-22T04:54:42.312Z,91.82
2023-02-22T04:59:42.269Z,91.72
2023-02-22T05:04:42.215Z,91.41
2023-02-22T05:09:42.098Z,91.06
2023-02-22T05:14:42.038Z,90.55
2023-02-22T05:19:41.974Z,90.44
2023-02-22T05:24:41.897Z,90.85
2023-02-22T05:29:41.845Z,90.85
2023-02-22T05:34:41.783Z,90.30
2023-02-22T05:39:41.732Z,89.89
2023-02-22T05:44:41.714Z,90.30
2023-02-22T05:49:41.607Z,90.20
2023-02-22T05:54:41.528Z,90.91
2023-02-22T05:59:41.487Z,90.24
2023-02-22T06:04:41.388Z,90.95
2023-02-22T06:09:41.322Z,90.55
2023-02-22T06:14:41.270Z,90.85
2023-02-22T06:19:41.193Z,91.67
2023-02-22T06:24:41.164Z,91.78
2023-02-22T06:29:41.046Z,91.22
2023-02-22T06:34:40.980Z,90.30
2023-02-22T06:39:40.916Z,90.20
2023-02-22T06:44:40.854Z,89.78
2023-02-22T06:49:40.777Z,89.69
2023-02-22T06:54:40.698Z,89.75
2023-02-22T06:59:40.684Z,89.43
2023-02-22T07:04:43.288Z,88.78
2023-02-22T07:09:40.522Z,87.24
2023-02-22T07:14:40.491Z,87.65
2023-02-22T07:19:40.406Z,87.20
2023-02-22T07:24:40.349Z,86.93
2023-02-22T07:29:40.325Z,87.24
2023-02-22T07:34:40.209Z,86.90
2023-02-22T07:39:40.172Z,85.93
2023-02-22T07:44:40.055Z,85.38
2023-02-22T07:49:39.996Z,84.56
2023-02-22T07:54:39.958Z,83.97
2023-02-22T07:59:39.924Z,82.75
2023-02-22T08:04:39.832Z,82.20
2023-02-22T08:09:39.741Z,80.83
2023-02-22T08:14:39.685Z,80.93
2023-02-22T08:19:39.616Z,80.79
2023-02-22T08:24:39.548Z,80.18
2023-02-22T08:29:39.509Z,79.83
2023-02-22T08:34:39.426Z,78.27
2023-02-22T08:39:39.387Z,77.96
2023-02-22T08:44:39.292Z,78.12
2023-02-22T08:49:39.240Z,77.41
2023-02-22T08:54:39.176Z,78.30
2023-02-22T08:59:39.085Z,76.46
2023-02-22T09:04:39.038Z,75.10
2023-02-22T09:09:38.972Z,74.90
2023-02-22T09:14:38.887Z,74.35
2023-02-22T09:19:38.825Z,73.80
2023-02-22T09:24:38.764Z,72.75
2023-02-22T09:29:38.695Z,72.08
2023-02-22T09:34:38.656Z,72.55
2023-02-22T09:39:38.589Z,70.72
2023-02-22T09:44:38.494Z,70.58
2023-02-22T09:49:38.427Z,70.28
2023-02-22T09:54:38.385Z,70.68
2023-02-22T09:59:38.286Z,70.48
2023-02-22T10:04:38.318Z,70.07
2023-02-22T10:09:38.185Z,69.53
2023-02-22T10:14:38.092Z,68.35
2023-02-22T10:19:38.022Z,69.20
2023-02-22T10:24:37.960Z,70.35
2023-02-22T10:29:37.935Z,69.70
2023-02-22T10:34:37.835Z,68.49
2023-02-22T10:39:37.802Z,67.44
2023-02-22T10:44:37.679Z,67.10
2023-02-22T10:49:37.664Z,66.29
2023-02-22T10:54:37.572Z,66.36
2023-02-22T10:59:37.483Z,65.48
2023-02-22T11:04:37.457Z,65.68
2023-02-22T11:09:37.356Z,65.14
2023-02-22T11:14:37.276Z,65.17
2023-02-22T11:19:37.213Z,64.87
2023-02-22T11:24:48.794Z,64.94
2023-02-22T11:29:38.174Z,63.01
2023-02-22T11:34:37.019Z,61.39
2023-02-22T11:39:37.008Z,63.95
2023-02-22T11:44:36.894Z,63.62
2023-02-22T11:49:36.829Z,62.10
2023-02-22T11:54:36.764Z,60.95
2023-02-22T11:59:36.718Z,61.16
2023-02-22T12:04:36.740Z,61.87
2023-02-22T12:09:36.566Z,62.81
2023-02-22T12:14:36.516Z,62.30
2023-02-22T12:19:36.427Z,60.68
2023-02-22T12:24:36.358Z,62.43
2023-02-22T12:29:36.318Z,62.84
2023-02-22T12:34:36.276Z,62.36
2023-02-22T12:39:50.761Z,62.74
2023-02-22T12:44:37.138Z,62.94
2023-02-22T12:49:36.023Z,61.99
2023-02-22T12:54:35.963Z,62.13
2023-02-22T12:59:35.894Z,62.05
2023-02-22T13:04:35.870Z,62.26
2023-02-22T13:09:35.783Z,63.00
2023-02-22T13:14:35.698Z,62.16
2023-02-22T13:19:35.642Z,62.97
2023-02-22T13:24:35.570Z,62.43
2023-02-22T13:29:35.536Z,63.04
2023-02-22T13:34:35.467Z,62.53
2023-02-22T13:39:35.396Z,62.53
2023-02-22T13:44:35.369Z,63.07
2023-02-22T13:49:35.349Z,63.07
2023-02-22T13:54:35.173Z,63.20
2023-02-22T13:59:36.284Z,63.51
2023-02-22T14:04:35.065Z,64.22
2023-02-22T14:09:34.980Z,65.06
2023-02-22T14:14:34.911Z,65.39
2023-02-22T14:19:34.877Z,66.24
2023-02-22T14:24:34.798Z,66.35
2023-02-22T14:29:34.756Z,66.47
2023-02-22T14:34:34.641Z,67.49
2023-02-22T14:39:34.580Z,67.05
2023-02-22T14:44:34.509Z,66.85
2023-02-22T14:49:34.449Z,66.96
2023-02-22T14:54:34.353Z,67.87
2023-02-22T14:59:34.385Z,68.51
2023-02-22T15:04:34.243Z,71.47
2023-02-22T15:09:34.992Z,74.55
2023-02-22T15:14:34.078Z,75.92
2023-02-22T15:19:34.029Z,76.93
2023-02-22T15:24:33.990Z,77.48
2023-02-22T15:29:34.181Z,78.33
2023-02-22T15:34:33.880Z,78.88
2023-02-22T15:39:33.788Z,79.18
2023-02-22T15:44:33.992Z,79.28
2023-02-22T15:49:33.663Z,80.04
2023-02-22T15:54:33.596Z,80.89
2023-02-22T15:59:33.567Z,81.71
2023-02-22T16:04:33.464Z,82.56
2023-02-22T16:09:33.494Z,83.48
2023-02-22T16:14:33.438Z,84.69
2023-02-22T16:19:33.358Z,84.89
2023-02-22T16:24:33.212Z,85.91
2023-02-22T16:29:33.135Z,88.31
2023-02-22T16:34:33.067Z,86.26
2023-02-22T16:39:32.992Z,82.93
2023-02-22T16:44:32.950Z,86.80
2023-02-22T16:49:32.856Z,79.25
2023-02-22T16:54:32.808Z,75.26
2023-02-22T16:59:32.729Z,76.18
2023-02-22T17:04:32.650Z,75.87
2023-02-22T17:09:32.583Z,76.83
2023-02-22T17:14:32.489Z,81.05
2023-02-22T17:19:32.445Z,83.59
2023-02-22T17:24:32.387Z,84.44
2023-02-22T17:29:32.317Z,84.38
2023-02-22T17:34:32.376Z,84.72
2023-02-22T17:39:32.270Z,85.17
2023-02-22T17:44:32.210Z,84.97
2023-02-22T17:49:32.143Z,85.28
2023-02-22T17:54:31.995Z,84.77
2023-02-22T17:59:31.992Z,84.60
2023-02-22T18:04:31.996Z,84.70
2023-02-22T18:09:31.815Z,85.25
2023-02-22T18:14:31.742Z,85.98
2023-02-22T18:19:31.684Z,77.64
2023-02-22T18:24:31.693Z,72.52
2023-02-22T18:29:31.615Z,77.01
2023-02-22T18:34:31.463Z,79.98
2023-02-22T18:39:31.402Z,82.04
2023-02-22T18:44:31.453Z,83.31
2023-02-22T18:49:31.374Z,84.03
2023-02-22T18:54:31.444Z,84.58
2023-02-22T18:59:31.263Z,85.19
2023-02-22T19:04:31.063Z,85.54
2023-02-22T19:09:31.080Z,85.74
2023-02-22T19:14:31.037Z,85.85
2023-02-22T19:19:30.867Z,86.25
2023-02-22T19:24:30.836Z,86.09
2023-02-22T19:29:30.802Z,86.40
2023-02-22T19:34:30.724Z,86.19
2023-02-22T19:39:30.609Z,86.30
2023-02-22T19:44:30.536Z,86.71
2023-02-22T19:49:30.530Z,86.71
2023-02-22T19:54:30.423Z,87.37
2023-02-22T19:59:30.332Z,87.22
2023-02-22T20:04:30.303Z,87.05
2023-02-22T20:09:30.305Z,87.37
2023-02-22T20:14:30.189Z,87.67
2023-02-22T20:19:30.129Z,87.77
2023-02-22T20:24:30.034Z,87.82
2023-02-22T20:29:29.984Z,87.92
2023-02-22T20:34:29.919Z,88.23
2023-02-22T20:39:29.864Z,88.02
2023-02-22T20:44:29.745Z,88.12
2023-02-22T20:49:29.713Z,88.27
2023-02-22T20:54:29.632Z,88.68
2023-02-22T20:59:29.579Z,88.78
2023-02-22T21:04:29.530Z,88.89
2023-02-22T21:09:29.463Z,88.37
2023-02-22T21:14:29.410Z,88.17
2023-02-22T21:19:29.327Z,87.92
2023-02-22T21:24:29.285Z,88.33
2023-02-22T21:29:29.243Z,87.82
2023-02-22T21:34:29.139Z,87.82
2023-02-22T21:39:29.044Z,87.82
2023-02-22T21:44:28.980Z,87.61
2023-02-22T21:49:28.939Z,87.40
2023-02-22T21:54:28.885Z,87.30
2023-02-22T21:59:28.798Z,86.99
2023-02-22T22:04:28.784Z,87.10
2023-02-22T22:09:28.673Z,86.89
2023-02-22T22:14:28.643Z,87.20
2023-02-22T22:19:28.544Z,87.20
2023-02-22T22:24:28.476Z,86.99
2023-02-22T22:29:28.446Z,87.04
2023-02-22T22:34:28.336Z,86.93
2023-02-22T22:39:28.270Z,87.04
2023-02-22T22:44:28.191Z,87.24
2023-02-22T22:49:28.117Z,86.93
2023-02-22T22:54:28.039Z,87.13
2023-02-22T22:59:28.004Z,87.34
2023-02-22T23:04:27.913Z,87.34
2023-02-22T23:09:27.865Z,87.13
2023-02-22T23:14:27.783Z,87.24
2023-02-22T23:19:27.764Z,87.24
2023-02-22T23:24:27.929Z,87.24
2023-02-22T23:29:27.628Z,87.49
2023-02-22T23:34:27.570Z,87.28
2023-02-22T23:39:27.481Z,87.79
2023-02-22T23:44:27.695Z,88.14
2023-02-22T23:49:27.349Z,88.56
2023-02-22T23:54:27.268Z,89.01
2023-02-22T23:59:27.299Z,89.22
